Time;durP1;ratioP1;P1;durP2;ratioP2;P2;SDS_P1;SDS_P2;PMS_P1;PMS_P2;Temp;Humidity;BMP_temperature;BMP_pressure;BME280_temperature;BME280_humidity;BME280_pressure;Samples;Min_cycle;Max_cycle;Signal;HPM_P1;HPM_P2
2022/06/08 00:01:19;;;;;;;4.30;2.75;;;;;;;14.57;100.00;99025.69;5073659;28;20246;-79
2022/06/08 00:03:51;;;;;;;6.97;3.20;;;;;;;14.59;100.00;99022.88;5073757;28;20195;-80
2022/06/08 00:06:18;;;;;;;4.97;2.70;;;;;;;14.59;100.00;99021.00;5072181;28;20213;-79
2022/06/08 00:08:45;;;;;;;4.93;3.08;;;;;;;14.56;100.00;99018.56;5072887;28;20276;-79
2022/06/08 00:11:12;;;;;;;4.82;3.33;;;;;;;14.64;100.00;99017.91;5073147;28;20197;-80
2022/06/08 00:13:40;;;;;;;5.03;2.72;;;;;;;14.69;100.00;99015.66;5073373;28;20563;-79
2022/06/08 00:16:08;;;;;;;5.95;2.80;;;;;;;14.65;100.00;99011.50;5072881;28;20196;-78
2022/06/08 00:18:36;;;;;;;8.25;3.92;;;;;;;14.58;100.00;99008.47;5073101;28;20645;-81
2022/06/08 00:21:03;;;;;;;7.40;2.80;;;;;;;14.57;100.00;99014.00;5072676;28;20278;-79
2022/06/08 00:23:30;;;;;;;6.10;3.00;;;;;;;14.43;100.00;99015.13;5073283;28;20195;-79
2022/06/08 00:25:57;;;;;;;5.00;2.80;;;;;;;14.44;100.00;99010.56;5072841;28;20189;-79
2022/06/08 00:28:23;;;;;;;4.10;2.70;;;;;;;14.49;100.00;99011.88;5072539;28;20236;-79
2022/06/08 00:30:50;;;;;;;4.43;2.53;;;;;;;14.50;100.00;99008.22;5076886;28;20184;-79
2022/06/08 00:33:17;;;;;;;3.90;2.97;;;;;;;14.60;100.00;98997.50;5072496;28;20191;-79
2022/06/08 00:35:45;;;;;;;4.07;2.40;;;;;;;14.54;100.00;98997.97;5073802;28;20246;-79
2022/06/08 00:38:12;;;;;;;12.50;2.75;;;;;;;14.49;100.00;98992.06;5072760;28;20188;-79
2022/06/08 00:40:48;;;;;;;4.70;2.30;;;;;;;14.51;100.00;98987.41;5072543;28;20747;-79
2022/06/08 00:43:16;;;;;;;7.75;3.10;;;;;;;14.57;100.00;98995.03;5072221;28;20243;-80
2022/06/08 00:45:44;;;;;;;4.00;2.90;;;;;;;14.42;100.00;98986.31;5071736;28;20191;-79
2022/06/08 00:48:10;;;;;;;5.55;2.97;;;;;;;14.38;100.00;98991.16;5072258;28;20291;-79
2022/06/08 00:50:43;;;;;;;5.75;2.80;;;;;;;14.43;100.00;98985.34;5072202;28;20661;-79
2022/06/08 00:53:14;;;;;;;5.10;2.78;;;;;;;14.52;100.00;98989.97;5072591;28;20311;-79
2022/06/08 00:55:42;;;;;;;4.88;2.33;;;;;;;14.59;100.00;98983.09;5072348;28;20271;-79
2022/06/08 00:58:14;;;;;;;7.95;2.70;;;;;;;14.67;100.00;98987.84;5072411;28;20288;-79
2022/06/08 01:00:43;;;;;;;3.83;2.63;;;;;;;14.53;100.00;98986.28;5071959;28;20205;-79
2022/06/08 01:03:11;;;;;;;5.63;2.83;;;;;;;14.45;100.00;98977.06;5071947;28;20631;-80
2022/06/08 01:05:42;;;;;;;9.55;2.75;;;;;;;14.47;100.00;98984.09;5071814;28;20220;-79
2022/06/08 01:08:27;;;;;;;6.50;2.90;;;;;;;14.63;100.00;98980.09;5071911;28;20648;-80
2022/06/08 01:10:56;;;;;;;5.30;2.90;;;;;;;14.79;100.00;98975.97;5071837;28;20200;-78
2022/06/08 01:13:23;;;;;;;4.72;3.28;;;;;;;15.12;100.00;98965.91;5073046;28;20284;-76
2022/06/08 01:15:50;;;;;;;3.83;2.70;;;;;;;15.18;100.00;98959.97;5072763;28;20617;-76
2022/06/08 01:18:17;;;;;;;4.07;2.95;;;;;;;15.21;100.00;98962.41;5073846;28;20635;-76
2022/06/08 01:20:46;;;;;;;3.67;2.78;;;;;;;15.30;100.00;98959.88;5073747;28;20679;-77
2022/06/08 01:23:15;;;;;;;3.78;2.63;;;;;;;15.47;100.00;98959.25;5073626;28;20200;-76
2022/06/08 01:26:02;;;;;;;4.85;2.83;;;;;;;15.44;100.00;98964.94;5073514;28;20533;-77
2022/06/08 01:28:36;;;;;;;6.10;3.00;;;;;;;15.46;100.00;98957.53;5073790;28;20273;-77
2022/06/08 01:31:13;;;;;;;4.85;2.72;;;;;;;15.43;100.00;98972.22;5073435;28;20279;-75
2022/06/08 01:33:57;;;;;;;7.10;3.15;;;;;;;15.30;100.00;98957.16;5072612;28;20192;-82
2022/06/08 01:36:47;;;;;;;4.32;2.42;;;;;;;15.33;100.00;98955.06;5071959;28;20271;-84
2022/06/08 01:39:25;;;;;;;3.90;2.70;;;;;;;15.48;100.00;98943.84;5071702;28;20281;-83
2022/06/08 01:42:11;;;;;;;4.78;2.35;;;;;;;15.36;100.00;98943.94;5072391;28;20271;-83
2022/06/08 01:48:00;;;;;;;6.88;2.63;;;;;;;15.26;100.00;98932.16;5058954;28;20238;-81
2022/06/08 01:50:35;;;;;;;4.28;2.45;;;;;;;15.31;100.00;98932.63;5072655;28;20634;-83
2022/06/08 01:53:08;;;;;;;28.52;26.40;;;;;;;15.25;100.00;98925.03;5071971;28;20241;-84
2022/06/08 01:55:44;;;;;;;3.45;2.72;;;;;;;15.18;100.00;98923.84;5071341;28;20268;-83
2022/06/08 01:58:16;;;;;;;4.93;2.75;;;;;;;15.20;100.00;98922.72;5072193;28;20184;-82
2022/06/08 02:00:47;;;;;;;5.28;3.00;;;;;;;15.31;100.00;98926.31;5071885;28;20311;-83
2022/06/08 02:03:20;;;;;;;4.20;2.97;;;;;;;15.19;100.00;98921.00;5072135;28;20317;-82
2022/06/08 02:05:56;;;;;;;4.47;2.90;;;;;;;15.17;100.00;98916.69;5072558;28;20239;-82
2022/06/08 02:08:32;;;;;;;2.63;2.25;;;;;;;15.27;100.00;98916.78;5072349;28;20275;-83
2022/06/08 02:11:09;;;;;;;4.82;4.32;;;;;;;15.26;100.00;98917.75;5072607;28;20272;-82
2022/06/08 02:13:41;;;;;;;6.47;2.83;;;;;;;15.14;100.00;98915.13;5072329;28;20637;-83
2022/06/08 02:16:14;;;;;;;4.50;3.30;;;;;;;15.23;100.00;98908.88;5071865;28;20280;-83
2022/06/08 02:18:44;;;;;;;5.68;2.83;;;;;;;15.40;100.00;98903.84;5072267;28;20211;-82
2022/06/08 02:21:15;;;;;;;3.63;2.90;;;;;;;15.43;100.00;98898.97;5071906;28;20299;-83
2022/06/08 02:23:47;;;;;;;3.60;2.83;;;;;;;15.40;100.00;98901.13;5071486;28;20195;-81
2022/06/08 02:26:18;;;;;;;10.05;3.35;;;;;;;15.35;100.00;98895.22;5071829;28;20193;-83
2022/06/08 02:28:49;;;;;;;5.65;2.25;;;;;;;15.36;100.00;98894.25;5072883;28;20317;-82
2022/06/08 02:31:21;;;;;;;6.55;3.30;;;;;;;15.30;100.00;98889.38;5075776;28;20662;-83
2022/06/08 02:36:42;;;;;;;5.55;2.90;;;;;;;15.20;100.00;98890.19;5075221;28;20203;-82
2022/06/08 02:39:14;;;;;;;6.25;3.00;;;;;;;15.17;100.00;98884.16;5075520;28;20189;-83
2022/06/08 02:41:44;;;;;;;3.67;2.88;;;;;;;15.14;100.00;98885.31;5075549;28;20675;-82
2022/06/08 02:44:16;;;;;;;4.55;2.65;;;;;;;15.14;100.00;98881.72;5068474;28;20627;-82
2022/06/08 02:46:49;;;;;;;7.70;3.30;;;;;;;15.13;100.00;98878.16;5075182;28;20710;-83
2022/06/08 02:49:16;;;;;;;6.97;2.78;;;;;;;15.10;100.00;98877.56;5075073;28;20547;-83
2022/06/08 02:51:46;;;;;;;5.93;2.60;;;;;;;15.03;100.00;98877.25;5075248;28;20209;-82
2022/06/08 02:54:17;;;;;;;5.07;3.05;;;;;;;14.85;100.00;98870.75;5075140;28;20193;-82
2022/06/08 02:56:55;;;;;;;4.50;2.67;;;;;;;14.61;100.00;98880.03;5074784;28;20249;-82
2022/06/08 02:59:25;;;;;;;6.85;3.53;;;;;;;14.81;100.00;98883.69;5075347;28;20726;-82
2022/06/08 03:02:02;;;;;;;5.55;3.10;;;;;;;15.00;100.00;98877.53;5075618;28;20192;-82
2022/06/08 03:04:35;;;;;;;7.57;3.33;;;;;;;15.08;100.00;98880.44;5073845;28;20184;-82
2022/06/08 03:07:08;;;;;;;4.10;2.65;;;;;;;15.02;100.00;98875.56;5075414;28;20271;-83
2022/06/08 03:09:37;;;;;;;5.35;2.75;;;;;;;15.01;100.00;98884.66;5075026;28;20269;-82
2022/06/08 03:12:12;;;;;;;7.85;3.45;;;;;;;14.95;100.00;98883.34;5074361;28;20279;-82
2022/06/08 03:14:42;;;;;;;5.35;2.60;;;;;;;14.69;100.00;98874.78;5074138;28;20279;-83
2022/06/08 03:17:10;;;;;;;4.32;2.80;;;;;;;14.63;100.00;98869.03;5074414;28;20268;-82
2022/06/08 03:19:38;;;;;;;5.93;3.20;;;;;;;14.63;100.00;98871.75;5074838;28;20188;-82
2022/06/08 03:22:06;;;;;;;7.82;2.95;;;;;;;14.54;100.00;98865.22;5074570;28;20266;-83
2022/06/08 03:24:32;;;;;;;4.57;3.30;;;;;;;14.49;100.00;98867.47;5074890;28;20189;-83
2022/06/08 03:27:02;;;;;;;5.50;3.30;;;;;;;14.65;100.00;98870.59;5074925;28;20268;-82
2022/06/08 03:29:33;;;;;;;3.13;2.70;;;;;;;14.73;100.00;98864.53;5074105;28;20228;-83
2022/06/08 03:31:59;;;;;;;5.05;2.78;;;;;;;14.57;100.00;98865.88;5074817;28;20643;-83
2022/06/08 03:34:26;;;;;;;9.88;6.10;;;;;;;14.37;100.00;98853.16;5074027;28;20604;-83
2022/06/08 03:36:54;;;;;;;3.80;3.00;;;;;;;14.31;100.00;98865.38;5054216;28;20264;-83
2022/06/08 03:39:21;;;;;;;7.20;3.25;;;;;;;14.43;100.00;98878.88;5056843;28;20247;-83
2022/06/08 03:41:47;;;;;;;4.38;2.85;;;;;;;14.42;100.00;98882.53;5074144;28;20276;-83
2022/06/08 03:44:15;;;;;;;4.47;3.10;;;;;;;14.31;100.00;98873.50;5074206;28;20198;-82
2022/06/08 03:46:48;;;;;;;6.97;3.78;;;;;;;14.37;100.00;98878.38;5073647;28;20283;-82
2022/06/08 03:49:15;;;;;;;3.40;3.05;;;;;;;14.45;100.00;98884.97;5075512;28;20617;-82
2022/06/08 03:51:43;;;;;;;5.65;3.00;;;;;;;14.42;100.00;98871.72;5085967;28;20207;-82
2022/06/08 03:54:15;;;;;;;5.85;3.25;;;;;;;14.43;100.00;98866.19;5074429;28;20211;-82
2022/06/08 03:56:44;;;;;;;6.30;3.50;;;;;;;14.53;100.00;98868.94;5074112;28;20185;-82
2022/06/08 03:59:11;;;;;;;3.67;2.85;;;;;;;14.53;100.00;98874.34;5074622;28;20188;-82
2022/06/08 04:01:38;;;;;;;6.25;3.83;;;;;;;14.64;100.00;98863.50;5074719;28;20195;-82
2022/06/08 04:04:07;;;;;;;4.65;2.85;;;;;;;14.77;100.00;98866.00;5073318;28;20613;-83
2022/06/08 04:06:33;;;;;;;6.18;2.80;;;;;;;14.80;100.00;98873.84;5073657;28;20287;-83
2022/06/08 04:09:00;;;;;;;4.68;3.03;;;;;;;14.95;100.00;98877.09;5074082;28;20180;-83
2022/06/08 04:11:27;;;;;;;4.60;2.63;;;;;;;14.93;100.00;98879.06;5073302;28;20311;-82
2022/06/08 04:13:55;;;;;;;3.97;3.45;;;;;;;14.92;100.00;98874.63;5074234;28;20577;-83
2022/06/08 04:16:22;;;;;;;3.70;3.13;;;;;;;14.67;100.00;98868.63;5073866;28;20697;-82
2022/06/08 04:18:49;;;;;;;3.03;2.72;;;;;;;14.75;100.00;98874.25;5075056;28;20283;-83
2022/06/08 04:21:18;;;;;;;5.00;3.13;;;;;;;15.05;100.00;98859.00;5074142;28;20223;-83
2022/06/08 04:23:46;;;;;;;4.75;3.38;;;;;;;15.13;100.00;98861.06;5073824;28;20192;-82
2022/06/08 04:26:14;;;;;;;5.82;3.00;;;;;;;15.18;100.00;98853.38;5074167;28;20658;-82
2022/06/08 04:28:42;;;;;;;5.95;3.05;;;;;;;15.04;100.00;98846.47;5073997;28;20263;-81
2022/06/08 04:31:09;;;;;;;5.50;2.92;;;;;;;14.99;100.00;98843.28;5074104;28;20296;-82
2022/06/08 04:33:36;;;;;;;6.35;3.40;;;;;;;15.19;100.00;98852.34;5073632;28;20207;-82
2022/06/08 04:36:04;;;;;;;7.25;3.17;;;;;;;15.26;100.00;98848.09;5073668;28;20234;-76
2022/06/08 04:38:33;;;;;;;5.57;2.85;;;;;;;15.40;100.00;98847.72;5074249;28;20232;-75
2022/06/08 04:41:01;;;;;;;3.65;3.00;;;;;;;15.46;100.00;98857.16;5073852;28;20189;-76
2022/06/08 04:43:28;;;;;;;4.25;2.58;;;;;;;15.43;100.00;98841.16;5074119;28;20208;-77
2022/06/08 04:45:54;;;;;;;6.15;2.92;;;;;;;15.45;100.00;98841.88;5073309;28;20592;-77
2022/06/08 04:48:22;;;;;;;5.47;3.28;;;;;;;15.46;100.00;98846.31;5073908;28;20284;-77
2022/06/08 04:50:49;;;;;;;6.20;3.25;;;;;;;15.67;100.00;98839.91;5072822;28;20224;-74
2022/06/08 04:53:16;;;;;;;5.13;2.90;;;;;;;15.60;100.00;98834.19;5073003;28;20189;-76
2022/06/08 04:55:44;;;;;;;3.50;2.72;;;;;;;15.71;100.00;98828.69;5074650;28;20539;-75
2022/06/08 04:58:11;;;;;;;6.68;3.90;;;;;;;15.69;100.00;98829.78;5073354;28;20193;-76
2022/06/08 05:00:38;;;;;;;7.32;2.88;;;;;;;15.88;100.00;98832.56;5072815;28;20274;-76
2022/06/08 05:03:04;;;;;;;6.45;3.42;;;;;;;16.07;100.00;98829.00;5074003;28;20203;-75
2022/06/08 05:05:33;;;;;;;5.53;3.40;;;;;;;16.23;100.00;98826.56;5073562;28;20287;-76
2022/06/08 05:08:02;;;;;;;4.30;2.53;;;;;;;16.32;100.00;98822.13;5071284;28;20225;-76
2022/06/08 05:10:31;;;;;;;4.00;2.60;;;;;;;16.53;100.00;98829.25;5073360;28;20189;-76
2022/06/08 05:13:00;;;;;;;4.30;3.10;;;;;;;16.82;100.00;98818.31;5073059;28;20182;-76
2022/06/08 05:15:29;;;;;;;5.65;3.28;;;;;;;16.73;100.00;98817.31;5072944;28;20228;-76
2022/06/08 05:17:56;;;;;;;4.03;3.60;;;;;;;16.84;100.00;98825.31;5073561;28;20189;-76
2022/06/08 05:20:24;;;;;;;6.28;4.13;;;;;;;17.06;100.00;98817.81;5073371;28;20208;-76
2022/06/08 05:22:51;;;;;;;5.28;2.80;;;;;;;17.00;100.00;98815.69;5072793;28;20283;-75
2022/06/08 05:25:21;;;;;;;5.78;3.78;;;;;;;16.84;100.00;98825.31;5072952;28;20272;-76
2022/06/08 05:27:47;;;;;;;4.78;2.63;;;;;;;16.73;100.00;98821.91;5072529;28;20230;-76
2022/06/08 05:30:15;;;;;;;8.45;4.03;;;;;;;16.60;100.00;98814.94;5072488;28;20324;-76
2022/06/08 05:32:42;;;;;;;5.65;2.70;;;;;;;16.73;100.00;98811.88;5072851;28;20216;-76
2022/06/08 05:35:09;;;;;;;5.15;2.78;;;;;;;16.67;100.00;98821.50;5070168;28;20281;-76
2022/06/08 05:37:36;;;;;;;8.05;3.60;;;;;;;16.83;100.00;98809.19;5072787;28;20186;-75
2022/06/08 05:40:05;;;;;;;4.90;2.85;;;;;;;16.98;100.00;98806.81;5072847;28;20231;-74
2022/06/08 05:42:32;;;;;;;5.53;3.50;;;;;;;17.14;100.00;98811.63;5072964;28;20208;-75
2022/06/08 05:44:58;;;;;;;5.45;2.45;;;;;;;17.39;100.00;98810.94;5069729;28;20278;-75
2022/06/08 05:47:27;;;;;;;8.70;2.95;;;;;;;17.43;100.00;98806.03;5071979;28;20601;-75
2022/06/08 05:49:53;;;;;;;6.10;3.97;;;;;;;17.52;100.00;98799.69;5072375;28;20216;-75
2022/06/08 05:52:20;;;;;;;3.53;2.88;;;;;;;17.71;100.00;98793.25;5072717;28;20317;-76
2022/06/08 05:54:47;;;;;;;6.40;3.42;;;;;;;17.72;100.00;98787.63;5072035;28;20226;-76
2022/06/08 05:57:15;;;;;;;7.38;4.97;;;;;;;17.78;99.55;98783.47;5072433;28;20196;-75
2022/06/08 05:59:41;;;;;;;5.40;3.03;;;;;;;17.76;99.51;98785.47;5071605;28;20660;-75
2022/06/08 06:02:11;;;;;;;5.90;3.33;;;;;;;17.62;100.00;98784.16;5072081;28;20282;-75
2022/06/08 06:04:40;;;;;;;4.35;2.72;;;;;;;17.87;98.85;98779.84;5075751;28;20193;-74
2022/06/08 06:07:07;;;;;;;5.05;2.38;;;;;;;18.20;96.18;98774.66;5075441;28;20244;-76
2022/06/08 06:09:34;;;;;;;4.22;3.00;;;;;;;18.51;93.27;98780.53;5075911;28;20207;-75
2022/06/08 06:12:00;;;;;;;4.53;2.22;;;;;;;18.95;88.76;98777.75;5075467;28;20299;-75
2022/06/08 06:14:27;;;;;;;5.03;2.45;;;;;;;19.05;88.25;98783.09;5075992;28;20223;-76
2022/06/08 06:16:54;;;;;;;6.82;3.80;;;;;;;19.27;86.75;98776.19;5076131;28;20284;-76
2022/06/08 06:19:21;;;;;;;3.95;2.30;;;;;;;19.02;87.62;98766.22;5076047;28;20261;-75
2022/06/08 06:21:49;;;;;;;8.95;3.17;;;;;;;18.84;89.90;98769.03;5076010;28;20818;-75
2022/06/08 06:24:16;;;;;;;3.40;2.90;;;;;;;19.19;87.97;98765.25;5075414;28;20216;-75
2022/06/08 06:26:43;;;;;;;5.30;2.30;;;;;;;18.92;89.17;98763.59;5075896;28;20688;-76
2022/06/08 06:29:36;;;;;;;5.87;3.10;;;;;;;19.29;87.06;98762.41;5075526;28;20478;-75
2022/06/08 06:32:06;;;;;;;7.75;3.40;;;;;;;19.51;84.66;98760.91;5069505;28;20474;-75
2022/06/08 06:34:33;;;;;;;4.47;3.00;;;;;;;19.63;83.39;98758.72;5075108;28;20196;-78
2022/06/08 06:37:02;;;;;;;6.20;2.47;;;;;;;19.64;84.27;98752.25;5075309;28;20517;-76
2022/06/08 06:39:28;;;;;;;5.20;2.63;;;;;;;19.46;85.06;98746.91;5075044;28;20429;-74
2022/06/08 06:41:56;;;;;;;6.60;3.53;;;;;;;19.40;84.97;98753.88;5075145;28;20439;-76
2022/06/08 06:44:23;;;;;;;7.90;3.10;;;;;;;19.38;86.07;98750.47;5073216;28;20514;-75
2022/06/08 06:46:49;;;;;;;3.10;2.30;;;;;;;19.41;85.77;98752.03;5075116;28;20482;-75
2022/06/08 06:49:16;;;;;;;4.63;3.00;;;;;;;19.50;85.85;98759.22;5074981;28;20971;-77
2022/06/08 06:51:45;;;;;;;3.50;2.30;;;;;;;19.71;85.06;98764.22;5074791;28;20467;-76
2022/06/08 06:54:13;;;;;;;6.33;2.60;;;;;;;20.01;82.76;98760.00;5077536;28;20958;-76
2022/06/08 06:56:40;;;;;;;5.47;2.60;;;;;;;20.36;80.08;98756.06;5088796;28;20442;-77
2022/06/08 06:59:07;;;;;;;6.27;2.83;;;;;;;20.31;79.24;98752.16;5096035;28;20414;-77
2022/06/08 07:01:34;;;;;;;5.13;2.30;;;;;;;20.38;78.89;98761.38;5095771;28;20813;-76
2022/06/08 07:04:01;;;;;;;4.80;2.10;;;;;;;20.53;78.20;98767.84;5095649;28;20445;-76
2022/06/08 07:06:29;;;;;;;3.50;2.30;;;;;;;20.70;77.34;98765.13;5088046;28;20447;-77
2022/06/08 07:08:56;;;;;;;3.03;2.50;;;;;;;21.03;74.36;98768.63;5074556;28;20423;-77
2022/06/08 07:11:35;;;;;;;8.47;4.10;;;;;;;21.12;74.25;98755.72;5074502;28;20522;-77
2022/06/08 07:14:03;;;;;;;3.93;2.70;;;;;;;21.25;73.60;98742.34;5073801;28;20430;-77
2022/06/08 07:16:30;;;;;;;6.53;3.47;;;;;;;21.34;72.53;98740.41;5073535;28;20436;-77
2022/06/08 07:18:57;;;;;;;7.33;2.80;;;;;;;21.21;73.25;98744.59;5074651;28;20517;-77
2022/06/08 07:21:24;;;;;;;6.20;3.37;;;;;;;21.29;73.96;98746.41;5074341;28;20411;-78
2022/06/08 07:23:51;;;;;;;7.93;2.97;;;;;;;21.62;71.33;98744.41;5074681;28;20445;-76
2022/06/08 07:26:18;;;;;;;6.63;3.10;;;;;;;21.60;71.56;98742.88;5074098;28;20454;-74
2022/06/08 07:28:46;;;;;;;4.80;2.47;;;;;;;21.47;71.71;98742.59;5073313;28;20481;-76
2022/06/08 07:31:13;;;;;;;7.23;2.93;;;;;;;21.51;72.09;98739.31;5073638;28;20459;-74
2022/06/08 07:33:40;;;;;;;4.60;2.30;;;;;;;21.43;72.23;98725.66;5073927;28;20426;-74
2022/06/08 07:36:08;;;;;;;5.37;2.50;;;;;;;21.25;73.16;98728.66;5067427;28;20526;-74
2022/06/08 07:38:35;;;;;;;3.50;1.90;;;;;;;21.11;74.35;98732.97;5053361;28;20443;-74
2022/06/08 07:41:01;;;;;;;4.63;3.13;;;;;;;21.17;74.51;98731.44;5057210;28;20482;-76
2022/06/08 07:43:28;;;;;;;2.43;2.07;;;;;;;21.18;73.65;98735.88;5072763;28;20450;-75
2022/06/08 07:45:56;;;;;;;3.87;2.40;;;;;;;21.59;71.61;98730.19;5072956;28;20521;-75
2022/06/08 07:51:07;;;;;;;5.90;1.90;;;;;;;21.16;74.46;98716.03;5073513;28;20521;-75
2022/06/08 07:53:34;;;;;;;10.67;4.00;;;;;;;21.28;74.60;98714.63;5073542;28;20499;-77
2022/06/08 07:56:00;;;;;;;4.73;2.50;;;;;;;21.40;74.51;98702.25;5073510;28;20435;-76
2022/06/08 07:58:27;;;;;;;3.90;2.57;;;;;;;21.26;75.33;98691.19;5073085;28;20478;-75
2022/06/08 08:00:57;;;;;;;3.63;2.47;;;;;;;21.62;74.28;98695.09;5073118;28;20970;-76
2022/06/08 08:03:25;;;;;;;8.90;2.40;;;;;;;21.76;72.32;98682.50;5073286;28;20488;-76
2022/06/08 08:05:52;;;;;;;6.40;2.53;;;;;;;22.07;70.39;98687.88;5072890;28;20443;-76
2022/06/08 08:08:20;;;;;;;3.97;2.50;;;;;;;22.46;68.82;98686.00;5073241;28;20805;-75
2022/06/08 08:10:47;;;;;;;4.60;2.30;;;;;;;22.84;66.46;98689.50;5072384;28;20509;-75
2022/06/08 08:13:15;;;;;;;3.40;1.93;;;;;;;22.89;65.72;98687.03;5071467;28;20570;-75
2022/06/08 08:15:44;;;;;;;2.97;1.80;;;;;;;22.91;66.29;98686.84;5072628;28;20515;-75
2022/06/08 08:18:12;;;;;;;5.53;2.30;;;;;;;;;;5073133;28;20437;-74
2022/06/08 08:20:39;;;;;;;4.40;2.00;;;;;;;23.46;63.59;98684.59;5072792;28;20543;-76
2022/06/08 08:23:07;;;;;;;5.50;2.37;;;;;;;23.80;60.28;98672.09;5072408;28;20462;-76
2022/06/08 08:25:35;;;;;;;4.67;1.90;;;;;;;23.52;60.21;98661.84;5072551;28;20419;-76
2022/06/08 08:28:02;;;;;;;4.07;1.77;;;;;;;23.51;60.53;98657.38;5072423;28;20439;-75
2022/06/08 08:30:30;;;;;;;4.60;2.80;;;;;;;23.65;60.01;98662.00;5072693;28;20832;-75
2022/06/08 08:32:57;;;;;;;3.87;2.27;;;;;;;23.74;59.01;98657.19;5072133;28;20553;-76
2022/06/08 08:35:26;;;;;;;2.97;1.67;;;;;;;23.93;59.32;98653.81;5072273;28;20886;-77
2022/06/08 08:37:53;;;;;;;6.03;4.37;;;;;;;23.83;59.62;98658.78;5072329;28;20459;-76
2022/06/08 08:40:34;;;;;;;5.57;2.80;;;;;;;23.30;58.99;98661.81;5072568;28;20415;-75
2022/06/08 08:43:01;;;;;;;4.17;2.70;;;;;;;23.57;59.75;98642.88;5072579;28;20912;-75
2022/06/08 08:45:33;;;;;;;3.43;1.60;;;;;;;23.96;57.12;98648.97;5072027;28;20522;-75
2022/06/08 08:48:06;;;;;;;7.53;4.60;;;;;;;23.48;59.44;98649.53;5071980;28;20514;-75
2022/06/08 08:50:41;;;;;;;4.67;1.67;;;;;;;23.09;58.13;98643.41;5072789;28;20992;-75
2022/06/08 08:53:23;;;;;;;3.37;1.70;;;;;;;22.61;61.69;98642.09;5072052;28;20540;-74
2022/06/08 08:55:52;;;;;;;5.27;1.80;;;;;;;22.90;61.14;98650.31;5071989;28;20509;-76
2022/06/08 08:58:23;;;;;;;5.90;2.10;;;;;;;23.17;60.97;98642.44;5072044;28;20482;-76
2022/06/08 09:00:53;;;;;;;3.90;2.10;;;;;;;23.42;59.90;98642.91;5071589;28;20450;-75
2022/06/08 09:03:27;;;;;;;6.70;1.80;;;;;;;23.20;59.71;98643.94;5072146;28;20515;-74
2022/06/08 09:05:58;;;;;;;6.53;1.83;;;;;;;23.22;58.49;98633.59;5071864;28;20509;-74
2022/06/08 09:08:26;;;;;;;5.60;2.10;;;;;;;23.64;57.88;98638.28;5072127;28;20457;-76
2022/06/08 09:10:56;;;;;;;8.57;2.83;;;;;;;23.95;56.91;98642.63;5071992;28;20797;-75
2022/06/08 09:13:45;;;;;;;4.40;2.17;;;;;;;23.85;56.13;98633.84;5073292;28;20557;-81
2022/06/08 09:16:27;;;;;;;6.37;2.07;;;;;;;24.32;54.66;98641.41;5072731;28;20443;-83
2022/06/08 09:18:55;;;;;;;5.47;2.10;;;;;;;24.48;54.03;98631.19;5072880;28;20730;-82
2022/06/08 09:21:30;;;;;;;4.47;1.50;;;;;;;24.54;53.92;98628.47;5072027;28;20873;-83
2022/06/08 09:23:58;;;;;;;3.80;2.10;;;;;;;24.64;54.14;98630.00;5072316;28;20510;-83
2022/06/08 09:26:35;;;;;;;3.13;2.00;;;;;;;24.46;54.73;98619.50;5072046;28;20506;-75
2022/06/08 09:29:10;;;;;;;4.20;1.93;;;;;;;24.21;55.61;98611.72;5072045;28;20832;-75
2022/06/08 09:31:39;;;;;;;4.00;1.97;;;;;;;23.85;57.29;98607.22;5071898;28;20837;-75
2022/06/08 09:34:19;;;;;;;5.57;1.90;;;;;;;24.37;55.12;98610.56;5071641;28;20511;-75
2022/06/08 09:37:06;;;;;;;5.97;2.90;;;;;;;24.72;54.11;98605.91;5071516;28;20769;-76
2022/06/08 09:39:34;;;;;;;4.83;1.73;;;;;;;25.19;51.92;98608.91;5068306;28;20992;-76
2022/06/08 09:42:11;;;;;;;2.50;1.57;;;;;;;25.51;50.80;98599.00;5071758;28;20812;-76
2022/06/08 09:44:44;;;;;;;5.83;1.93;;;;;;;25.50;50.69;98590.94;5071314;28;20434;-76
2022/06/08 09:53:17;;;;;;;4.60;1.43;;;;;;;24.35;52.48;98587.91;5071976;28;20498;-82
2022/06/08 09:56:02;;;;;;;8.70;4.40;;;;;;;23.40;54.10;98587.31;5073523;28;20433;-83
2022/06/08 09:58:47;;;;;;;5.40;1.90;;;;;;;23.20;55.23;98597.25;5074662;28;20446;-81
2022/06/08 10:01:24;;;;;;;3.13;1.70;;;;;;;22.66;57.49;98591.13;5075214;28;20481;-82
2022/06/08 10:04:12;;;;;;;3.83;1.83;;;;;;;22.66;58.47;98587.53;5075099;28;20522;-81
2022/06/08 10:06:46;;;;;;;3.83;1.73;;;;;;;22.75;58.41;98578.16;5057174;28;20451;-81
2022/06/08 10:09:25;;;;;;;5.13;1.90;;;;;;;22.66;58.83;98582.03;5076133;28;20537;-81
2022/06/08 10:12:02;;;;;;;5.20;1.70;;;;;;;23.26;56.57;98566.28;5075890;28;20419;-80
2022/06/08 10:14:39;;;;;;;6.70;2.37;;;;;;;23.83;54.99;98569.97;5074836;28;20451;-81
2022/06/08 10:17:14;;;;;;;9.73;3.60;;;;;;;24.10;53.87;98568.28;5075148;28;20497;-81
2022/06/08 10:19:52;;;;;;;9.00;5.60;;;;;;;23.92;53.46;98555.03;5074764;28;20426;-81
2022/06/08 10:22:23;;;;;;;16.03;5.37;;;;;;;23.78;54.17;98554.09;5071582;28;20498;-77
2022/06/08 10:24:58;;;;;;;7.57;1.70;;;;;;;24.64;50.99;98550.19;5071774;28;20824;-78
2022/06/08 10:27:30;;;;;;;4.50;2.20;;;;;;;24.77;50.99;98558.50;5071513;28;21100;-78
2022/06/08 10:30:07;;;;;;;5.07;2.20;;;;;;;24.90;50.73;98549.47;5070897;28;20852;-77
2022/06/08 10:32:39;;;;;;;4.77;2.10;;;;;;;25.03;50.71;98548.63;5071087;28;20473;-77
2022/06/08 10:35:21;;;;;;;6.90;2.73;;;;;;;25.27;49.53;98544.50;5070826;28;20427;-78
2022/06/08 10:37:48;;;;;;;4.70;1.83;;;;;;;25.29;48.62;98536.88;5070766;28;20463;-79
2022/06/08 10:40:20;;;;;;;4.13;2.30;;;;;;;25.02;50.19;98545.03;5071546;28;20427;-76
2022/06/08 10:42:49;;;;;;;5.90;2.00;;;;;;;24.46;52.03;98536.97;5070896;28;20493;-77
2022/06/08 10:45:43;;;;;;;4.17;2.00;;;;;;;24.09;54.55;98542.69;5071432;28;20503;-76
2022/06/08 10:48:26;;;;;;;6.43;2.53;;;;;;;23.88;54.70;98551.84;5072667;28;20934;-81
2022/06/08 10:51:20;;;;;;;10.93;3.53;;;;;;;22.85;58.94;98559.47;5076360;28;20505;-82
2022/06/08 10:56:49;;;;;;;6.00;2.47;;;;;;;22.81;60.36;98549.06;5076474;28;20620;-76
2022/06/08 10:59:20;;;;;;;5.63;3.20;;;;;;;23.15;60.12;98544.84;5075194;28;20529;-75
2022/06/08 11:01:57;;;;;;;4.97;3.50;;;;;;;23.40;58.22;98540.63;5073928;28;20518;-76
2022/06/08 11:04:52;;;;;;;3.50;2.17;;;;;;;23.51;57.31;98529.09;5073974;28;20461;-76
2022/06/08 11:07:22;;;;;;;6.30;2.47;;;;;;;23.55;56.92;98529.56;5074157;28;20459;-75
2022/06/08 11:09:58;;;;;;;6.73;1.63;;;;;;;23.44;56.17;98527.38;5074658;28;20430;-76
2022/06/08 11:12:55;;;;;;;6.47;5.80;;;;;;;23.20;58.72;98514.88;5074222;28;20462;-76
2022/06/08 11:15:41;;;;;;;4.40;2.17;;;;;;;23.07;59.42;98526.59;5074237;28;20786;-76
2022/06/08 11:18:18;;;;;;;10.07;2.30;;;;;;;23.00;60.44;98528.44;5073926;28;20885;-76
2022/06/08 11:20:53;;;;;;;4.67;2.20;;;;;;;22.94;62.58;98521.78;5073439;28;20419;-76
2022/06/08 11:23:24;;;;;;;7.40;2.00;;;;;;;22.88;66.71;98536.28;5073822;28;20521;-77
2022/06/08 11:25:53;;;;;;;9.83;2.10;;;;;;;22.80;67.70;98536.41;5073854;28;20437;-76
2022/06/08 11:28:31;;;;;;;6.57;3.17;;;;;;;22.89;72.71;98538.00;5073373;28;20561;-77
2022/06/08 11:31:00;;;;;;;3.57;2.30;;;;;;;22.83;71.69;98549.72;5073386;28;20522;-76
2022/06/08 11:34:08;;;;;;;4.73;1.83;;;;;;;22.10;72.79;98541.38;5073140;28;20573;-76
2022/06/08 11:37:03;;;;;;;4.27;2.17;;;;;;;22.31;74.34;98559.00;5073226;28;20897;-76
2022/06/08 11:39:35;;;;;;;3.43;1.83;;;;;;;22.17;76.85;98536.84;5077620;28;20860;-76
2022/06/08 11:42:19;;;;;;;5.20;2.23;;;;;;;22.25;78.50;98552.34;5073757;28;20437;-76
2022/06/08 11:44:54;;;;;;;7.40;3.13;;;;;;;22.10;82.51;98555.09;5073266;28;20704;-76
2022/06/08 11:47:24;;;;;;;6.10;2.30;;;;;;;21.97;81.11;98550.25;5073598;28;20789;-75
2022/06/08 11:49:57;;;;;;;5.97;2.27;;;;;;;21.26;83.28;98549.69;5073463;28;20420;-76
2022/06/08 11:52:31;;;;;;;5.30;2.67;;;;;;;21.44;86.74;98547.50;5073016;28;20481;-76
2022/06/08 11:55:18;;;;;;;5.57;2.30;;;;;;;21.38;84.30;98553.69;5073371;28;20856;-76
2022/06/08 11:57:50;;;;;;;10.70;2.67;;;;;;;21.10;87.62;98547.94;5073015;28;20431;-76
2022/06/08 12:00:29;;;;;;;4.60;2.60;;;;;;;20.74;90.76;98558.59;5072799;28;20504;-74
2022/06/08 12:03:00;;;;;;;4.53;2.03;;;;;;;20.53;92.21;98559.16;5072879;28;20431;-75
2022/06/08 12:05:31;;;;;;;6.90;2.17;;;;;;;20.60;90.46;98558.31;5073044;28;20427;-76